Time;durP1;ratioP1;P1;durP2;ratioP2;P2;SDS_P1;SDS_P2;PMS_P1;PMS_P2;Temp;Humidity;BMP_temperature;BMP_pressure;BME280_temperature;BME280_humidity;BME280_pressure;Samples;Min_cycle;Max_cycle;Signal;HPM_P1;HPM_P2
2022/06/01 02:46:22;;;;;;;3.33;1.02;;;13.90;99.90;;;;;;5828930;23;90583;-74
2022/06/01 02:48:48;;;;;;;4.97;1.30;;;13.90;99.90;;;;;;4916128;28;87551;-75
2022/06/01 02:51:15;;;;;;;2.90;1.02;;;13.60;99.90;;;;;;4917813;28;87042;-75
2022/06/01 02:53:41;;;;;;;1.95;0.60;;;13.40;99.90;;;;;;4918584;28;86978;-76
2022/06/01 02:56:07;;;;;;;4.32;1.25;;;13.30;99.90;;;;;;4921653;28;88503;-75
2022/06/01 02:58:34;;;;;;;3.97;1.00;;;13.40;99.90;;;;;;4921399;28;87153;-75
2022/06/01 03:01:01;;;;;;;3.28;1.23;;;13.30;99.90;;;;;;4921328;28;87120;-75
2022/06/01 03:03:27;;;;;;;3.08;1.00;;;13.40;99.90;;;;;;4922665;28;86232;-75
2022/06/01 03:05:52;;;;;;;3.05;0.77;;;13.40;99.90;;;;;;4920695;28;87656;-75
2022/06/01 03:08:18;;;;;;;3.67;1.70;;;13.40;99.90;;;;;;4921460;28;87057;-77
2022/06/01 03:10:44;;;;;;;3.33;1.30;;;13.30;99.90;;;;;;4917499;28;87872;-75
2022/06/01 03:13:11;;;;;;;5.68;1.45;;;13.30;99.90;;;;;;4918624;28;86916;-76
2022/06/01 03:15:37;;;;;;;6.55;1.60;;;13.20;99.90;;;;;;4920991;28;87034;-77
2022/06/01 03:18:03;;;;;;;4.20;1.70;;;13.20;99.90;;;;;;4919439;28;88422;-75
2022/06/01 03:20:29;;;;;;;3.38;1.50;;;13.10;99.90;;;;;;4918714;28;86811;-76
2022/06/01 03:22:58;;;;;;;5.90;1.20;;;13.10;99.90;;;;;;4925352;28;87469;-76
2022/06/01 03:25:24;;;;;;;2.75;1.35;;;13.20;99.90;;;;;;4921185;28;87510;-76
2022/06/01 03:27:52;;;;;;;4.43;1.83;;;13.30;99.90;;;;;;4920790;28;87409;-77
2022/06/01 03:30:19;;;;;;;4.40;1.23;;;13.30;99.90;;;;;;4914608;28;88024;-76
2022/06/01 03:32:46;;;;;;;4.47;1.67;;;13.30;99.90;;;;;;4915654;28;87688;-76
2022/06/01 03:35:14;;;;;;;4.63;1.38;;;13.30;99.90;;;;;;4915327;28;89343;-76
2022/06/01 03:37:40;;;;;;;5.20;1.75;;;13.30;99.90;;;;;;4916010;28;88048;-75
2022/06/01 03:40:06;;;;;;;7.63;2.00;;;13.30;99.90;;;;;;4918724;28;86873;-74
2022/06/01 03:42:33;;;;;;;4.10;2.20;;;13.20;99.90;;;;;;4912660;28;87069;-75
2022/06/01 03:47:44;;;;;;;5.00;1.70;;;13.10;99.90;;;;;;4902198;28;87117;-75
2022/06/01 03:50:11;;;;;;;3.65;1.70;;;13.10;99.90;;;;;;4913973;28;86854;-75
2022/06/01 03:52:37;;;;;;;2.88;1.63;;;13.10;99.90;;;;;;4918221;28;86319;-74
2022/06/01 03:55:05;;;;;;;3.95;2.00;;;13.20;99.90;;;;;;4916924;28;87007;-75
2022/06/01 03:57:30;;;;;;;3.83;1.80;;;13.40;99.90;;;;;;4920208;28;88351;-75
2022/06/01 03:59:56;;;;;;;3.47;1.73;;;13.40;99.90;;;;;;4920881;28;87804;-76
2022/06/01 04:02:22;;;;;;;5.63;1.70;;;13.50;99.90;;;;;;4912559;28;87279;-76
2022/06/01 04:04:47;;;;;;;3.03;1.38;;;13.60;99.90;;;;;;4926097;28;87800;-75
2022/06/01 04:07:13;;;;;;;3.70;1.80;;;13.50;99.90;;;;;;4926526;28;87043;-75
2022/06/01 04:09:38;;;;;;;2.97;1.50;;;13.60;99.90;;;;;;4933665;28;86956;-77
2022/06/01 04:12:04;;;;;;;2.60;1.48;;;13.60;99.90;;;;;;4923823;28;87022;-76
2022/06/01 04:14:30;;;;;;;9.52;1.38;;;13.70;99.90;;;;;;4922631;28;87368;-76
2022/06/01 04:16:56;;;;;;;3.10;1.20;;;13.90;99.90;;;;;;4924055;28;88124;-76
2022/06/01 04:19:21;;;;;;;2.55;0.80;;;14.40;99.90;;;;;;4920148;28;87315;-76
2022/06/01 04:21:51;;;;;;;2.40;0.80;;;14.50;99.90;;;;;;4922106;28;87054;-77
2022/06/01 04:24:19;;;;;;;1.90;0.50;;;14.60;99.90;;;;;;4921940;28;89107;-76
2022/06/01 04:26:45;;;;;;;4.70;0.45;;;14.70;99.90;;;;;;4920765;28;88223;-76
2022/06/01 04:29:11;;;;;;;1.77;0.55;;;14.70;99.90;;;;;;4923433;28;87010;-76
2022/06/01 04:31:38;;;;;;;1.73;0.50;;;14.70;99.90;;;;;;4921001;28;86994;-76
2022/06/01 04:34:04;;;;;;;4.07;0.52;;;14.70;99.90;;;;;;4920230;28;87858;-76
2022/06/01 04:36:30;;;;;;;1.75;0.60;;;14.80;99.90;;;;;;4921852;28;87271;-77
2022/06/01 04:38:56;;;;;;;5.18;0.80;;;14.70;99.90;;;;;;4923957;28;87323;-76
2022/06/01 04:41:21;;;;;;;2.72;0.70;;;14.70;99.90;;;;;;4922235;28;86206;-76
2022/06/01 04:43:47;;;;;;;1.85;0.73;;;14.80;99.90;;;;;;4919136;28;87847;-77
2022/06/01 04:46:13;;;;;;;5.50;1.00;;;14.80;99.90;;;;;;4922165;28;86808;-77
2022/06/01 04:48:38;;;;;;;2.30;0.65;;;14.70;99.90;;;;;;4922969;28;88002;-77
2022/06/01 04:51:05;;;;;;;3.42;0.73;;;14.80;99.90;;;;;;4917746;28;87018;-77
2022/06/01 04:53:31;;;;;;;1.75;0.70;;;14.90;99.90;;;;;;4911268;28;88180;-77
2022/06/01 04:55:57;;;;;;;1.90;0.63;;;14.90;99.90;;;;;;4922490;28;87105;-76
2022/06/01 04:58:23;;;;;;;2.42;0.90;;;14.90;99.90;;;;;;4923182;28;86946;-75
2022/06/01 05:00:49;;;;;;;5.72;0.80;;;15.10;99.90;;;;;;4918664;28;86900;-75
2022/06/01 05:03:15;;;;;;;2.47;1.13;;;15.30;99.90;;;;;;4915091;28;87339;-76
2022/06/01 05:05:41;;;;;;;4.22;1.20;;;15.40;99.90;;;;;;4922783;28;88113;-77
2022/06/01 05:08:09;;;;;;;5.35;1.27;;;15.40;99.90;;;;;;4913839;28;87144;-77
2022/06/01 05:10:35;;;;;;;4.50;1.50;;;15.90;99.90;;;;;;4922943;28;88307;-76
2022/06/01 05:13:01;;;;;;;4.50;1.30;;;16.00;99.90;;;;;;4922575;28;88047;-78
2022/06/01 05:15:27;;;;;;;2.78;1.13;;;16.60;99.90;;;;;;4923716;28;88830;-78
2022/06/01 05:17:53;;;;;;;3.60;1.50;;;16.80;99.90;;;;;;4919247;28;87138;-77
2022/06/01 05:20:19;;;;;;;7.07;1.45;;;17.30;99.90;;;;;;4921278;28;87432;-76
2022/06/01 05:22:45;;;;;;;3.58;1.60;;;17.70;97.40;;;;;;4921266;28;86855;-77
2022/06/01 05:25:10;;;;;;;3.85;1.15;;;17.50;97.80;;;;;;4913067;28;87059;-77
2022/06/01 05:27:37;;;;;;;3.30;1.45;;;17.60;96.80;;;;;;4920430;28;87116;-77
2022/06/01 05:30:05;;;;;;;4.28;0.98;;;17.70;97.00;;;;;;4922716;28;85737;-77
2022/06/01 05:32:31;;;;;;;2.65;0.75;;;18.10;94.50;;;;;;4916091;28;88539;-77
2022/06/01 05:34:58;;;;;;;3.08;0.55;;;18.80;93.80;;;;;;4918751;28;87028;-77
2022/06/01 05:37:24;;;;;;;2.65;0.70;;;20.20;88.70;;;;;;4919503;28;87745;-78
2022/06/01 05:39:49;;;;;;;1.95;0.68;;;21.50;81.00;;;;;;4918409;28;87019;-77
2022/06/01 05:42:15;;;;;;;2.92;0.63;;;23.80;73.60;;;;;;4925078;28;87093;-78
2022/06/01 05:44:41;;;;;;;5.22;0.52;;;25.90;65.10;;;;;;4925629;28;86919;-78
2022/06/01 05:47:07;;;;;;;2.40;0.95;;;27.60;61.70;;;;;;4919286;28;86734;-78
2022/06/01 05:49:32;;;;;;;1.48;0.75;;;28.90;57.00;;;;;;4924072;28;86819;-76
2022/06/01 05:51:58;;;;;;;2.00;0.88;;;30.10;53.00;;;;;;4923215;28;87593;-78
2022/06/01 05:54:24;;;;;;;1.73;0.63;;;31.10;50.20;;;;;;4922531;28;87648;-78
2022/06/01 05:56:50;;;;;;;2.05;0.82;;;31.00;47.90;;;;;;4925015;28;87171;-78
2022/06/01 05:59:16;;;;;;;3.42;0.85;;;31.00;49.20;;;;;;4921970;28;86745;-78
2022/06/01 06:01:42;;;;;;;3.13;1.02;;;31.40;47.30;;;;;;4922840;28;88326;-78
2022/06/01 06:04:07;;;;;;;2.17;1.52;;;30.50;47.10;;;;;;4924958;28;88323;-78
2022/06/01 06:06:34;;;;;;;1.52;0.85;;;30.90;49.10;;;;;;4920908;28;86623;-78
2022/06/01 06:09:05;;;;;;;2.25;0.90;;;31.20;47.50;;;;;;4923857;28;87107;-78
2022/06/01 06:11:34;;;;;;;1.58;1.05;;;31.20;48.70;;;;;;4924500;28;87076;-78
2022/06/01 06:13:59;;;;;;;2.08;1.17;;;31.50;45.10;;;;;;4920951;28;86901;-77
2022/06/01 06:16:28;;;;;;;1.45;0.82;;;29.40;48.60;;;;;;4922232;28;88901;-77
2022/06/01 06:18:57;;;;;;;;;;;27.70;51.10;;;;;;4923438;28;86652;-77
2022/06/01 06:21:29;;;;;;;1.50;0.57;;;26.20;54.50;;;;;;4923505;28;88281;-77
2022/06/01 06:23:59;;;;;;;1.27;0.63;;;25.00;57.10;;;;;;4918468;28;87266;-77
2022/06/01 06:26:25;;;;;;;3.88;0.52;;;24.00;59.20;;;;;;4920442;28;87823;-76
2022/06/01 06:28:50;;;;;;;2.58;0.32;;;23.30;61.00;;;;;;4921056;28;86793;-77
2022/06/01 06:31:16;;;;;;;1.65;0.60;;;23.10;62.20;;;;;;4921780;28;87257;-78
2022/06/01 06:33:42;;;;;;;3.55;0.80;;;23.10;62.40;;;;;;4915932;28;87882;-77
2022/06/01 06:36:08;;;;;;;2.42;0.55;;;23.20;62.50;;;;;;4922111;28;86639;-77
2022/06/01 06:38:36;;;;;;;3.05;0.77;;;23.50;63.00;;;;;;4923733;28;87093;-78
2022/06/01 06:41:04;;;;;;;2.05;1.10;;;25.90;59.30;;;;;;4923788;28;88279;-77
2022/06/01 06:43:31;;;;;;;2.35;0.80;;;29.60;52.20;;;;;;4921124;28;86184;-77
2022/06/01 06:46:09;;;;;;;2.30;1.13;;;32.20;46.40;;;;;;4922146;28;87404;-77
2022/06/01 06:48:36;;;;;;;2.22;0.82;;;31.70;45.70;;;;;;4928349;28;87557;-78
2022/06/01 06:51:02;;;;;;;4.70;0.80;;;30.70;47.20;;;;;;4923071;28;87933;-77
2022/06/01 06:53:28;;;;;;;1.65;0.90;;;32.00;46.60;;;;;;4921351;28;88967;-77
2022/06/01 06:55:54;;;;;;;3.03;1.15;;;34.50;44.40;;;;;;4921603;28;88898;-77
2022/06/01 06:58:20;;;;;;;5.18;1.15;;;36.50;41.30;;;;;;4928425;28;86893;-78
2022/06/01 07:00:46;;;;;;;4.75;1.75;;;37.30;39.50;;;;;;4928911;28;87752;-77
2022/06/01 07:03:12;;;;;;;2.08;1.58;;;37.20;37.80;;;;;;4922020;28;87261;-77
2022/06/01 07:08:24;;;;;;;2.33;1.45;;;38.00;38.70;;;;;;4922638;28;85781;-77
2022/06/01 07:10:51;;;;;;;3.05;2.22;;;39.10;36.00;;;;;;4921289;28;87359;-78
2022/06/01 07:13:16;;;;;;;2.80;1.75;;;40.20;36.40;;;;;;4906081;28;90046;-77
2022/06/01 07:15:42;;;;;;;2.47;1.90;;;41.00;35.10;;;;;;4922349;28;87768;-78
2022/06/01 07:18:08;;;;;;;2.88;1.95;;;41.00;35.60;;;;;;4923057;28;86957;-77
2022/06/01 07:20:34;;;;;;;2.08;1.88;;;41.30;35.40;;;;;;4922999;28;88557;-78
2022/06/01 07:23:00;;;;;;;8.32;2.15;;;41.30;34.80;;;;;;4921994;28;87046;-79
2022/06/01 07:25:27;;;;;;;3.92;3.63;;;41.60;34.10;;;;;;4923129;28;87006;-78
2022/06/01 07:27:54;;;;;;;2.97;2.17;;;42.20;33.80;;;;;;4925819;28;86788;-80
2022/06/01 07:30:20;;;;;;;2.30;1.88;;;42.60;33.40;;;;;;4923109;28;87164;-78
2022/06/01 07:32:49;;;;;;;3.53;3.22;;;41.90;33.90;;;;;;4925159;28;86276;-78
2022/06/01 07:35:16;;;;;;;2.20;1.90;;;41.00;33.30;;;;;;4924778;28;86723;-77
2022/06/01 07:43:12;;;;;;;2.35;2.15;;;39.20;35.60;;;;;;4920451;28;86954;-78
2022/06/01 07:45:42;;;;;;;4.90;1.98;;;39.70;34.70;;;;;;4921650;28;87010;-77
2022/06/01 07:48:09;;;;;;;3.20;1.70;;;38.70;34.60;;;;;;4927384;28;87279;-77
2022/06/01 07:50:36;;;;;;;4.25;1.55;;;38.10;37.20;;;;;;4930183;28;87311;-78
2022/06/01 07:53:05;;;;;;;2.60;1.83;;;38.70;36.20;;;;;;4922056;28;87902;-78
2022/06/01 07:55:31;;;;;;;5.85;1.90;;;37.20;36.10;;;;;;4925301;28;87093;-78
2022/06/01 07:57:56;;;;;;;3.08;1.55;;;37.00;37.00;;;;;;4933025;28;86268;-77
2022/06/01 08:00:23;;;;;;;4.68;1.83;;;37.00;37.40;;;;;;4949457;28;87492;-79
2022/06/01 08:02:48;;;;;;;3.65;1.63;;;39.30;36.50;;;;;;4927854;28;89942;-78
2022/06/01 08:05:16;;;;;;;4.00;2.67;;;41.90;34.30;;;;;;4934141;28;87080;-79
2022/06/01 08:07:43;;;;;;;2.30;2.10;;;43.50;32.60;;;;;;4924350;28;86692;-79
2022/06/01 08:10:11;;;;;;;2.65;1.67;;;43.90;30.60;;;;;;4925376;28;88678;-78
2022/06/01 08:15:21;;;;;;;3.72;2.95;;;45.60;30.10;;;;;;4924082;28;87066;-79
2022/06/01 08:17:47;;;;;;;5.55;2.65;;;45.60;30.10;;;;;;4922417;28;87076;-78
2022/06/01 08:20:16;;;;;;;4.57;3.60;;;43.50;31.10;;;;;;4925756;28;88513;-79
2022/06/01 08:22:42;;;;;;;2.95;2.70;;;44.10;30.20;;;;;;4923651;28;87755;-78
2022/06/01 08:25:10;;;;;;;4.45;2.78;;;44.30;30.90;;;;;;4920505;28;87124;-78
2022/06/01 08:27:36;;;;;;;3.78;2.95;;;45.20;29.70;;;;;;4920332;28;88123;-77
2022/06/01 08:30:03;;;;;;;4.05;3.72;;;43.80;30.10;;;;;;4925928;28;88063;-77
2022/06/01 08:32:28;;;;;;;4.13;2.45;;;44.30;30.80;;;;;;4930086;28;88333;-77
2022/06/01 08:34:54;;;;;;;9.00;3.42;;;46.20;29.00;;;;;;4918839;28;86870;-79
2022/06/01 08:37:20;;;;;;;5.15;3.33;;;45.00;29.50;;;;;;4921445;28;87677;-78
2022/06/01 08:39:45;;;;;;;3.85;2.42;;;44.30;29.00;;;;;;4923153;28;87794;-77
2022/06/01 08:42:15;;;;;;;3.20;2.30;;;42.40;30.70;;;;;;4923979;28;87389;-78
2022/06/01 08:44:44;;;;;;;3.53;2.65;;;41.70;30.90;;;;;;4924526;28;87059;-78
2022/06/01 08:47:29;;;;;;;2.65;2.45;;;39.40;33.40;;;;;;4928767;28;86267;-79
2022/06/01 08:49:59;;;;;;;6.03;2.95;;;39.40;36.30;;;;;;4923994;28;86796;-79
2022/06/01 08:52:26;;;;;;;9.65;3.28;;;39.40;34.60;;;;;;4928126;28;86929;-79
2022/06/01 08:54:52;;;;;;;3.72;3.38;;;38.30;34.60;;;;;;4918253;28;87993;-79
2022/06/01 08:57:57;;;;;;;3.95;2.88;;;38.90;32.60;;;;;;4926952;28;87565;-78
2022/06/01 09:00:26;;;;;;;3.45;2.22;;;40.80;32.40;;;;;;4931208;28;87372;-78
2022/06/01 09:03:20;;;;;;;8.07;2.22;;;41.80;30.80;;;;;;4926380;28;87398;-78
2022/06/01 09:05:52;;;;;;;2.55;2.35;;;41.30;31.70;;;;;;4930060;28;87640;-78
2022/06/01 09:08:52;;;;;;;5.80;2.28;;;41.00;31.40;;;;;;4925382;28;87036;-78
2022/06/01 09:11:26;;;;;;;4.03;2.17;;;43.50;30.90;;;;;;4861969;28;87375;-79
2022/06/01 09:14:10;;;;;;;3.03;2.63;;;46.00;29.70;;;;;;4920264;28;86481;-78
2022/06/01 09:16:45;;;;;;;3.47;2.65;;;46.30;27.70;;;;;;4920255;28;86953;-78
2022/06/01 09:19:25;;;;;;;2.75;2.53;;;45.60;28.10;;;;;;4918217;28;86764;-77
2022/06/01 09:24:55;;;;;;;3.42;2.05;;;41.50;31.00;;;;;;4921669;28;87071;-77
2022/06/01 09:27:40;;;;;;;3.08;1.65;;;39.00;32.60;;;;;;4923574;28;87855;-77
2022/06/01 09:30:18;;;;;;;2.20;1.65;;;39.10;33.40;;;;;;4924386;28;86999;-78
2022/06/01 09:33:03;;;;;;;3.80;0.93;;;36.10;35.50;;;;;;4927344;28;87799;-79
2022/06/01 09:35:42;;;;;;;2.47;1.42;;;34.30;38.20;;;;;;4929815;28;87945;-79
2022/06/01 09:38:34;;;;;;;2.33;1.52;;;33.10;40.40;;;;;;4927552;28;86997;-79
2022/06/01 09:41:31;;;;;;;4.72;1.42;;;36.30;36.40;;;;;;4916842;28;86303;-78
2022/06/01 09:43:56;;;;;;;3.58;2.08;;;38.50;31.80;;;;;;4923185;28;87078;-78
2022/06/01 09:46:33;;;;;;;3.55;1.13;;;36.50;34.10;;;;;;4923384;28;87117;-78
2022/06/01 09:49:05;;;;;;;4.00;2.13;;;34.80;37.30;;;;;;4925950;28;88161;-77
2022/06/01 09:51:34;;;;;;;3.10;1.67;;;37.70;35.80;;;;;;4926087;28;87410;-78
2022/06/01 09:54:25;;;;;;;2.53;1.45;;;39.80;32.70;;;;;;4922112;28;86840;-79
2022/06/01 09:56:51;;;;;;;5.10;1.98;;;38.40;31.40;;;;;;4922318;28;87306;-78
2022/06/01 10:08:05;;;;;;;4.03;1.52;;;37.10;34.40;;;;;;4921924;28;86971;-78
2022/06/01 10:10:31;;;;;;;3.03;1.52;;;37.00;34.50;;;;;;4922095;28;86956;-77
2022/06/01 10:13:01;;;;;;;3.42;1.60;;;36.20;33.80;;;;;;4917111;28;87223;-79
2022/06/01 10:15:42;;;;;;;2.08;1.02;;;34.90;35.40;;;;;;4917628;28;88699;-76
2022/06/01 10:18:21;;;;;;;6.95;1.50;;;33.80;37.10;;;;;;4920650;28;87954;-77
2022/06/01 10:21:06;;;;;;;2.15;1.35;;;32.10;38.10;;;;;;4919365;28;87435;-77
2022/06/01 10:23:47;;;;;;;3.45;1.52;;;31.70;37.50;;;;;;4919960;28;87260;-77
2022/06/01 10:26:33;;;;;;;3.38;1.80;;;30.60;39.30;;;;;;4923062;28;87024;-77
2022/06/01 10:29:13;;;;;;;1.92;1.17;;;30.50;39.90;;;;;;4914608;28;87164;-77
2022/06/01 10:32:04;;;;;;;3.60;1.15;;;30.90;41.10;;;;;;4920934;28;87095;-77
2022/06/01 10:35:07;;;;;;;2.63;0.75;;;30.30;39.60;;;;;;4920664;28;86162;-78
2022/06/01 10:37:54;;;;;;;2.58;1.10;;;30.00;40.30;;;;;;4867312;28;87570;-77
2022/06/01 10:40:27;;;;;;;3.85;1.02;;;29.60;41.10;;;;;;4922047;28;87368;-77
2022/06/01 10:43:18;;;;;;;1.77;0.85;;;30.00;41.30;;;;;;4920711;28;88291;-76
2022/06/01 10:46:00;;;;;;;2.42;1.08;;;30.00;41.00;;;;;;4918305;28;87188;-77
2022/06/01 10:48:31;;;;;;;3.20;1.58;;;30.00;41.80;;;;;;4915950;28;87171;-77
2022/06/01 10:51:09;;;;;;;1.95;1.05;;;29.10;41.70;;;;;;4915525;28;87952;-77
2022/06/01 10:54:05;;;;;;;1.63;1.02;;;29.10;43.50;;;;;;4922592;28;86643;-77
2022/06/01 10:56:32;;;;;;;2.05;1.08;;;29.10;43.60;;;;;;4923214;28;86984;-77
2022/06/01 10:59:05;;;;;;;4.38;1.35;;;28.60;43.40;;;;;;4920565;28;87290;-78
2022/06/01 11:01:41;;;;;;;2.47;1.10;;;28.80;45.50;;;;;;4916389;28;86897;-78
2022/06/01 11:04:30;;;;;;;1.75;0.70;;;28.80;45.00;;;;;;4924801;28;87086;-78
2022/06/01 11:07:11;;;;;;;1.65;0.95;;;28.70;46.60;;;;;;4903484;28;87132;-78
2022/06/01 11:09:55;;;;;;;1.90;0.93;;;28.70;45.10;;;;;;4916751;28;87726;-78
2022/06/01 11:12:26;;;;;;;2.63;1.13;;;28.80;44.90;;;;;;4918851;28;88304;-77
2022/06/01 11:15:54;;;;;;;7.03;1.25;;;28.80;44.50;;;;;;4914592;28;87888;-76
2022/06/01 11:18:22;;;;;;;2.95;0.80;;;28.50;45.30;;;;;;4819183;29;86879;-77
2022/06/01 11:21:10;;;;;;;1.42;0.75;;;28.30;45.90;;;;;;4891694;28;87112;-78
2022/06/01 11:23:44;;;;;;;2.40;0.80;;;28.60;45.30;;;;;;4915533;28;88143;-77
2022/06/01 11:26:28;;;;;;;1.63;0.80;;;28.00;45.40;;;;;;4912759;28;87553;-77
2022/06/01 11:29:08;;;;;;;4.20;1.08;;;27.40;46.00;;;;;;4915641;28;86416;-77
2022/06/01 11:31:36;;;;;;;2.80;1.02;;;27.10;47.10;;;;;;4915157;28;87566;-77
2022/06/01 11:34:25;;;;;;;4.72;1.20;;;26.90;48.10;;;;;;4920389;28;87087;-77
2022/06/01 11:37:00;;;;;;;3.72;1.02;;;26.80;49.70;;;;;;4918420;28;87825;-77
2022/06/01 11:39:40;;;;;;;2.70;0.90;;;26.70;49.40;;;;;;4918386;28;87118;-77
2022/06/01 11:42:19;;;;;;;2.92;1.42;;;26.40;48.60;;;;;;4916415;28;87094;-77
2022/06/01 11:44:54;;;;;;;2.80;0.90;;;26.10;49.50;;;;;;4917144;28;87460;-78
2022/06/01 11:47:22;;;;;;;2.55;0.73;;;26.60;50.50;;;;;;4920337;28;86996;-78
2022/06/01 11:50:18;;;;;;;1.52;0.77;;;27.00;49.10;;;;;;4917702;28;87178;-78
2022/06/01 11:52:52;;;;;;;3.10;0.77;;;27.30;48.80;;;;;;4915676;28;87281;-77
2022/06/01 11:55:33;;;;;;;3.70;1.00;;;27.80;48.40;;;;;;4916738;28;86677;-77
2022/06/01 11:58:38;;;;;;;3.17;1.20;;;27.40;48.00;;;;;;4921686;28;86648;-77
2022/06/01 12:01:16;;;;;;;2.05;0.93;;;26.80;49.20;;;;;;4924684;28;87063;-77
2022/06/01 12:03:56;;;;;;;4.28;1.00;;;26.50;51.20;;;;;;4917527;28;88601;-75
2022/06/01 12:06:44;;;;;;;2.33;0.88;;;26.10;50.10;;;;;;4911181;28;87176;-77
2022/06/01 12:09:34;;;;;;;2.92;1.00;;;25.60;51.50;;;;;;4921241;28;86844;-78
2022/06/01 12:12:01;;;;;;;2.38;0.73;;;25.30;53.20;;;;;;4916125;28;87025;-77
2022/06/01 12:14:32;;;;;;;3.30;1.13;;;25.40;52.70;;;;;;4920791;28;87347;-77
2022/06/01 12:17:16;;;;;;;3.30;1.00;;;25.60;52.10;;;;;;4919905;28;87044;-78
2022/06/01 12:19:45;;;;;;;4.18;1.50;;;25.40;52.10;;;;;;4920782;28;87123;-77
2022/06/01 12:28:54;;;;;;;3.47;0.82;;;24.90;53.60;;;;;;4917539;28;87279;-77
2022/06/01 12:31:34;;;;;;;2.95;0.75;;;24.40;54.40;;;;;;4924329;28;87976;-77
2022/06/01 12:34:20;;;;;;;2.45;0.70;;;23.80;56.90;;;;;;4920302;28;87047;-77
2022/06/01 12:37:08;;;;;;;2.90;0.90;;;23.60;57.40;;;;;;4923597;28;86739;-77
2022/06/01 12:39:42;;;;;;;3.20;0.88;;;23.40;57.30;;;;;;4923597;28;88060;-77
2022/06/01 12:42:18;;;;;;;3.75;0.98;;;23.20;58.00;;;;;;4923123;28;87528;-77
2022/06/01 12:44:50;;;;;;;3.80;1.05;;;23.20;58.80;;;;;;4923636;28;87870;-77
2022/06/01 12:47:41;;;;;;;3.75;0.90;;;23.10;58.30;;;;;;4924284;28;87600;-77
2022/06/01 12:50:17;;;;;;;5.00;1.20;;;22.50;61.30;;;;;;4920300;28;86312;-76
2022/06/01 12:52:43;;;;;;;2.35;1.00;;;22.50;63.00;;;;;;4920448;28;86893;-76
2022/06/01 12:55:13;;;;;;;4.97;1.10;;;22.40;64.50;;;;;;4921169;28;87307;-76
2022/06/01 12:57:58;;;;;;;3.33;1.02;;;22.20;64.30;;;;;;4921708;28;88567;-76
2022/06/01 13:00:30;;;;;;;2.92;0.70;;;22.20;65.90;;;;;;4922553;28;87987;-76
2022/06/01 13:02:56;;;;;;;5.45;1.00;;;22.20;65.70;;;;;;4922010;28;86966;-76
2022/06/01 13:05:38;;;;;;;4.25;1.35;;;22.00;66.60;;;;;;4919941;28;87961;-76
2022/06/01 13:08:08;;;;;;;2.25;0.70;;;21.90;68.20;;;;;;4919377;28;87302;-76
2022/06/01 13:10:35;;;;;;;4.38;1.40;;;21.70;67.70;;;;;;4923173;28;86383;-76
2022/06/01 13:13:06;;;;;;;2.85;1.40;;;21.50;68.50;;;;;;4921018;28;87127;-76
2022/06/01 13:15:32;;;;;;;5.30;1.30;;;21.60;68.00;;;;;;4923649;28;86225;-77
2022/06/01 13:18:01;;;;;;;4.63;1.05;;;21.60;68.40;;;;;;4917169;28;87071;-77
2022/06/01 13:20:35;;;;;;;3.92;0.90;;;21.70;68.20;;;;;;4922264;28;87340;-77
2022/06/01 13:23:05;;;;;;;4.97;0.88;;;21.70;67.90;;;;;;4917811;28;87936;-76
2022/06/01 13:25:34;;;;;;;4.68;1.20;;;21.80;66.70;;;;;;4922372;28;87337;-77
2022/06/01 13:28:00;;;;;;;2.25;1.02;;;21.70;69.00;;;;;;4916723;28;87388;-76
2022/06/01 13:30:29;;;;;;;3.05;0.75;;;21.40;70.30;;;;;;4923394;28;87049;-77
2022/06/01 13:32:57;;;;;;;2.65;0.98;;;21.50;69.70;;;;;;4923913;28;87059;-77
2022/06/01 13:35:42;;;;;;;3.45;1.02;;;21.60;71.10;;;;;;4919934;28;86947;-77
2022/06/01 13:38:18;;;;;;;4.43;1.23;;;21.70;70.60;;;;;;4922300;28;87191;-77
2022/06/01 13:41:00;;;;;;;;;;;21.70;72.10;;;;;;4924162;28;86598;-78
2022/06/01 13:43:26;;;;;;;3.70;1.10;;;21.80;71.40;;;;;;4918849;28;87505;-77
2022/06/01 13:46:05;;;;;;;4.18;1.10;;;21.80;71.10;;;;;;4923282;28;86918;-77
2022/06/01 13:48:53;;;;;;;2.53;1.05;;;21.70;70.90;;;;;;4917090;28;88799;-75
2022/06/01 13:51:36;;;;;;;3.15;1.30;;;21.60;72.90;;;;;;4921349;28;88327;-75
2022/06/01 13:54:28;;;;;;;5.63;1.13;;;21.50;75.50;;;;;;4920212;28;86882;-75
2022/06/01 13:57:16;;;;;;;3.55;1.08;;;21.40;72.50;;;;;;4919184;28;86767;-76
2022/06/01 14:00:04;;;;;;;5.28;1.35;;;21.30;73.80;;;;;;4921738;28;87304;-75
2022/06/01 14:02:32;;;;;;;3.55;1.15;;;21.30;72.50;;;;;;4900564;28;87134;-75
2022/06/01 14:05:19;;;;;;;3.33;1.10;;;21.30;73.20;;;;;;4919801;28;87460;-75
2022/06/01 14:08:02;;;;;;;3.40;1.33;;;21.50;74.80;;;;;;4917888;28;86592;-75
2022/06/01 14:10:36;;;;;;;2.55;1.20;;;21.60;75.40;;;;;;4917793;28;88606;-75
2022/06/01 14:13:02;;;;;;;5.13;1.23;;;21.50;74.50;;;;;;4921255;28;87149;-75
2022/06/01 14:15:30;;;;;;;5.60;1.50;;;21.40;77.90;;;;;;4918435;28;88001;-76
2022/06/01 14:17:56;;;;;;;7.18;1.63;;;21.40;79.50;;;;;;4915459;28;87468;-75
2022/06/01 14:20:22;;;;;;;3.65;1.20;;;21.30;79.00;;;;;;4921286;28;88140;-75
2022/06/01 14:22:47;;;;;;;3.15;1.33;;;21.30;77.20;;;;;;4923727;28;87064;-76
2022/06/01 14:30:41;;;;;;;5.32;1.95;;;20.30;79.90;;;;;;4922918;28;87493;-76
2022/06/01 14:33:10;;;;;;;5.53;1.70;;;20.10;84.50;;;;;;4920277;28;87318;-77
2022/06/01 14:35:36;;;;;;;3.20;1.33;;;20.00;82.30;;;;;;4917914;28;86952;-76
2022/06/01 14:38:01;;;;;;;5.55;1.20;;;20.00;83.10;;;;;;4921110;28;87206;-76
2022/06/01 14:40:27;;;;;;;5.05;1.70;;;20.10;84.60;;;;;;4921164;28;87965;-77
2022/06/01 14:43:03;;;;;;;4.82;1.83;;;20.00;83.80;;;;;;4919330;28;87917;-76
2022/06/01 14:45:28;;;;;;;;;;;19.80;83.50;;;;;;4916960;28;86319;-76
2022/06/01 14:47:54;;;;;;;5.50;1.40;;;19.40;86.80;;;;;;4915950;28;86991;-77
2022/06/01 14:50:20;;;;;;;3.22;1.08;;;19.50;87.60;;;;;;4917426;28;87572;-77
2022/06/01 14:52:45;;;;;;;5.20;1.40;;;19.60;86.40;;;;;;4915806;28;87128;-76
2022/06/01 14:55:11;;;;;;;4.70;1.65;;;19.40;88.00;;;;;;4918065;28;87157;-76
2022/06/01 14:57:36;;;;;;;7.22;1.80;;;19.30;90.00;;;;;;4922017;28;85890;-77
2022/06/01 15:00:06;;;;;;;4.57;1.45;;;19.30;89.70;;;;;;4920092;28;87539;-76
2022/06/01 15:02:32;;;;;;;7.95;1.83;;;19.60;90.20;;;;;;4903155;28;92269;-76
2022/06/01 15:05:04;;;;;;;6.38;1.70;;;19.90;90.20;;;;;;4918631;28;88428;-76
2022/06/01 15:07:30;;;;;;;6.50;1.95;;;19.90;89.20;;;;;;4916883;28;87008;-76
2022/06/01 15:09:56;;;;;;;5.68;2.13;;;19.90;90.80;;;;;;4919282;28;88249;-76
2022/06/01 15:12:22;;;;;;;7.22;2.13;;;20.10;90.60;;;;;;4919788;28;86983;-76
2022/06/01 15:14:48;;;;;;;5.97;2.13;;;20.10;90.60;;;;;;4919143;28;86722;-76
2022/06/01 15:17:26;;;;;;;9.88;2.30;;;20.30;90.20;;;;;;4922966;28;87233;-77
2022/06/01 15:19:54;;;;;;;5.47;2.10;;;20.30;90.50;;;;;;4916175;28;87433;-78
2022/06/01 15:22:19;;;;;;;6.32;2.13;;;20.10;90.50;;;;;;4915659;28;87122;-75
2022/06/01 15:24:46;;;;;;;5.93;2.55;;;19.60;90.90;;;;;;4919008;28;87484;-76
2022/06/01 15:27:15;;;;;;;6.40;2.42;;;19.30;92.40;;;;;;4918858;28;87286;-77
2022/06/01 15:40:57;;;;;;;7.60;2.90;;;17.40;99.90;;;;;;4887645;28;87046;-76
2022/06/01 15:43:23;;;;;;;7.18;3.03;;;17.10;99.90;;;;;;4916687;28;88641;-75
2022/06/01 15:45:51;;;;;;;7.75;2.50;;;17.00;99.90;;;;;;4919442;28;87059;-75
2022/06/01 15:48:19;;;;;;;6.40;3.13;;;17.10;99.90;;;;;;4917277;28;86413;-74
2022/06/01 15:50:46;;;;;;;7.88;2.55;;;17.10;99.90;;;;;;4920986;28;87103;-75
2022/06/01 15:53:12;;;;;;;4.82;2.55;;;17.00;99.90;;;;;;4916951;28;87152;-74
2022/06/01 15:55:39;;;;;;;5.40;2.20;;;17.10;99.90;;;;;;4916707;28;87952;-75
2022/06/01 15:58:06;;;;;;;5.63;1.98;;;17.10;99.90;;;;;;4914378;28;87130;-75
2022/06/01 16:00:32;;;;;;;5.00;1.50;;;17.20;99.90;;;;;;4915331;28;87021;-75
2022/06/01 16:03:00;;;;;;;3.30;0.98;;;17.40;99.90;;;;;;4916618;28;87160;-75
2022/06/01 16:05:26;;;;;;;2.58;1.00;;;17.40;99.90;;;;;;4921086;28;86816;-75
2022/06/01 16:07:52;;;;;;;5.78;1.10;;;17.20;99.90;;;;;;4919277;28;88388;-74
2022/06/01 16:10:19;;;;;;;2.47;0.98;;;17.40;99.90;;;;;;4916913;28;87749;-76
2022/06/01 16:12:45;;;;;;;4.20;1.40;;;17.30;99.90;;;;;;4914100;28;86218;-76
2022/06/01 16:15:11;;;;;;;4.47;1.17;;;17.30;99.90;;;;;;4914065;28;87091;-76
2022/06/01 16:17:41;;;;;;;3.38;0.82;;;17.30;99.90;;;;;;4916343;28;87011;-77
2022/06/01 16:20:09;;;;;;;2.55;1.20;;;17.30;99.90;;;;;;4914773;28;88363;-76
2022/06/01 16:22:37;;;;;;;2.65;0.90;;;17.60;99.90;;;;;;4895011;28;89390;-76
2022/06/01 16:25:04;;;;;;;2.33;0.90;;;17.70;99.90;;;;;;4916088;28;88058;-76
2022/06/01 16:27:30;;;;;;;3.92;1.20;;;17.60;97.80;;;;;;4915223;28;86983;-76
2022/06/01 16:29:57;;;;;;;3.47;1.25;;;17.60;99.60;;;;;;4912031;28;87517;-76
2022/06/01 16:32:35;;;;;;;3.08;1.02;;;17.60;99.90;;;;;;4912927;28;87431;-75
2022/06/01 16:35:03;;;;;;;4.03;0.90;;;17.80;99.90;;;;;;4917446;28;87253;-76
2022/06/01 16:37:29;;;;;;;5.00;1.00;;;17.80;99.90;;;;;;4914566;28;86456;-76
2022/06/01 16:39:55;;;;;;;3.15;0.82;;;17.80;99.90;;;;;;4917774;28;86954;-75
2022/06/01 16:42:21;;;;;;;4.63;1.27;;;17.90;99.90;;;;;;4910834;28;87388;-76